createdAt,value
2022-08-22T00:00:16.301Z,26.21
2022-08-22T00:01:16.299Z,26.20
2022-08-22T00:02:16.292Z,26.18
2022-08-22T00:03:01.690Z,26.35
2022-08-22T00:03:09.594Z,26.21
2022-08-22T00:03:09.768Z,26.28
2022-08-22T00:03:10.555Z,26.37
2022-08-22T00:03:11.649Z,26.32
2022-08-22T00:03:12.111Z,26.25
2022-08-22T00:03:18.969Z,26.20
2022-08-22T00:04:16.288Z,26.20
2022-08-22T00:05:16.249Z,26.21
2022-08-22T00:06:16.233Z,26.20
2022-08-22T00:07:16.222Z,26.20
2022-08-22T00:08:16.221Z,26.20
2022-08-22T00:09:16.204Z,26.20
2022-08-22T00:10:24.981Z,26.18
2022-08-22T00:11:17.194Z,26.18
2022-08-22T00:12:16.172Z,26.18
2022-08-22T00:13:16.162Z,26.21
2022-08-22T00:15:31.533Z,26.21
2022-08-22T00:16:14.048Z,26.18
2022-08-22T00:17:13.030Z,26.20
2022-08-22T00:18:13.039Z,26.18
2022-08-22T00:19:13.012Z,26.18
2022-08-22T00:20:13.058Z,26.20
2022-08-22T00:21:13.061Z,26.18
2022-08-22T00:22:13.013Z,26.18
2022-08-22T00:23:12.972Z,26.18
2022-08-22T00:24:12.980Z,26.17
2022-08-22T00:25:24.860Z,26.17
2022-08-22T00:26:13.981Z,26.18
2022-08-22T00:27:12.919Z,26.17
2022-08-22T00:28:12.910Z,26.17
2022-08-22T00:29:12.900Z,26.18
2022-08-22T00:30:12.899Z,26.18
2022-08-22T00:31:12.891Z,26.17
2022-08-22T00:32:12.930Z,26.18
2022-08-22T00:33:12.860Z,26.17
2022-08-22T00:34:12.850Z,26.15
2022-08-22T00:35:12.854Z,26.17
2022-08-22T00:36:12.836Z,26.17
2022-08-22T00:37:12.845Z,26.13
2022-08-22T00:38:12.843Z,26.15
2022-08-22T00:39:12.845Z,26.15
2022-08-22T00:40:12.815Z,26.15
2022-08-22T00:41:12.783Z,26.15
2022-08-22T00:42:12.773Z,26.15
2022-08-22T00:43:12.761Z,26.13
2022-08-22T00:44:12.772Z,26.15
2022-08-22T00:45:12.732Z,26.13
2022-08-22T00:46:12.752Z,26.15
2022-08-22T00:47:12.712Z,26.15
2022-08-22T00:48:14.343Z,26.13
2022-08-22T00:49:12.702Z,26.15
2022-08-22T00:50:12.682Z,26.13
2022-08-22T00:51:12.685Z,26.15
2022-08-22T00:52:12.684Z,26.12
2022-08-22T00:53:12.665Z,26.13
2022-08-22T00:54:18.028Z,26.13
2022-08-22T00:55:13.644Z,26.13
2022-08-22T00:56:12.625Z,26.13
2022-08-22T00:57:12.615Z,26.15
2022-08-22T00:58:12.634Z,26.13
2022-08-22T00:59:23.432Z,26.13
2022-08-22T01:00:13.583Z,26.12
2022-08-22T01:01:12.659Z,26.13
2022-08-22T01:02:12.553Z,26.12
2022-08-22T01:03:12.553Z,26.12
2022-08-22T01:04:13.183Z,26.12
2022-08-22T01:05:12.533Z,26.12
2022-08-22T01:06:12.519Z,26.13
2022-08-22T01:07:12.515Z,26.12
2022-08-22T01:08:12.526Z,26.12
2022-08-22T01:09:12.506Z,26.12
2022-08-22T01:10:12.488Z,26.12
2022-08-22T01:11:12.527Z,26.12
2022-08-22T01:12:12.455Z,26.12
2022-08-22T01:13:12.479Z,26.12
2022-08-22T01:14:12.456Z,26.10
2022-08-22T01:15:12.424Z,26.12
2022-08-22T01:16:12.415Z,26.13
2022-08-22T01:17:12.404Z,26.12
2022-08-22T01:18:12.395Z,26.10
2022-08-22T01:19:12.395Z,26.10
2022-08-22T01:20:12.404Z,26.10
2022-08-22T01:21:12.375Z,26.10
2022-08-22T01:22:12.355Z,26.10
2022-08-22T01:23:12.359Z,26.12
2022-08-22T01:24:12.337Z,26.10
2022-08-22T01:25:12.327Z,26.12
2022-08-22T01:26:12.367Z,26.10
2022-08-22T01:27:12.317Z,26.10
2022-08-22T01:28:12.298Z,26.09
2022-08-22T01:29:12.278Z,26.09
2022-08-22T01:30:12.268Z,26.10
2022-08-22T01:31:12.306Z,26.09
2022-08-22T01:32:12.248Z,26.09
2022-08-22T01:33:12.255Z,26.10
2022-08-22T01:34:12.787Z,26.07
2022-08-22T01:35:12.230Z,26.09
2022-08-22T01:36:12.209Z,26.09
2022-08-22T01:37:12.218Z,26.07
2022-08-22T01:38:12.209Z,26.07
2022-08-22T01:39:12.177Z,26.07
2022-08-22T01:40:12.194Z,26.09
2022-08-22T01:41:12.166Z,26.07
2022-08-22T01:42:12.149Z,26.07
2022-08-22T01:43:12.137Z,26.07
2022-08-22T01:44:12.118Z,26.09
2022-08-22T01:45:12.117Z,26.06
2022-08-22T01:46:12.097Z,26.09
2022-08-22T01:47:12.110Z,26.07
2022-08-22T01:48:12.119Z,26.06
2022-08-22T01:49:12.079Z,26.07
2022-08-22T01:50:12.069Z,26.06
2022-08-22T01:51:12.069Z,26.06
2022-08-22T01:52:12.059Z,26.07
2022-08-22T01:53:12.046Z,26.07
2022-08-22T01:54:12.037Z,26.07
2022-08-22T01:55:12.039Z,26.09
2022-08-22T01:56:11.998Z,26.07
2022-08-22T01:57:12.058Z,26.06
2022-08-22T01:58:11.988Z,26.06
2022-08-22T01:59:11.958Z,26.07
2022-08-22T02:00:11.959Z,26.06
2022-08-22T02:01:11.984Z,26.06
2022-08-22T02:02:12.579Z,26.07
2022-08-22T02:03:11.970Z,26.06
2022-08-22T02:04:11.913Z,26.06
2022-08-22T02:05:11.951Z,26.06
2022-08-22T02:06:13.296Z,26.05
2022-08-22T02:07:11.889Z,26.06
2022-08-22T02:08:11.872Z,26.06
2022-08-22T02:09:11.912Z,26.07
2022-08-22T02:10:11.893Z,26.05
2022-08-22T02:11:11.850Z,26.06
2022-08-22T02:12:13.921Z,26.06
2022-08-22T02:13:12.830Z,26.05
2022-08-22T02:14:11.841Z,26.06
2022-08-22T02:15:11.819Z,26.05
2022-08-22T02:16:11.790Z,26.06
2022-08-22T02:17:11.790Z,26.06
2022-08-22T02:18:11.770Z,26.06
2022-08-22T02:19:11.795Z,26.06
2022-08-22T02:20:11.782Z,26.06
2022-08-22T02:21:11.742Z,26.02
2022-08-22T02:22:11.742Z,26.05
2022-08-22T02:23:11.734Z,26.02
2022-08-22T02:24:11.723Z,26.05
2022-08-22T02:25:11.732Z,26.02
2022-08-22T02:26:11.703Z,26.05
2022-08-22T02:27:11.681Z,26.05
2022-08-22T02:28:11.676Z,26.05
2022-08-22T02:29:11.672Z,26.05
2022-08-22T02:30:11.642Z,26.02
2022-08-22T02:31:11.651Z,26.02
2022-08-22T02:32:12.630Z,26.06
2022-08-22T02:33:11.631Z,26.05
2022-08-22T02:34:11.612Z,26.02
2022-08-22T02:35:11.664Z,26.02
2022-08-22T02:36:11.593Z,26.02
2022-08-22T02:37:11.604Z,26.01
2022-08-22T02:38:11.574Z,26.02
2022-08-22T02:39:11.562Z,26.02
2022-08-22T02:40:11.613Z,26.01
2022-08-22T02:41:11.553Z,26.01
2022-08-22T02:42:11.543Z,26.01
2022-08-22T02:43:11.524Z,26.01
2022-08-22T02:44:11.513Z,26.02
2022-08-22T02:45:11.504Z,26.02
2022-08-22T02:46:11.516Z,26.01
2022-08-22T02:47:11.487Z,26.01
2022-08-22T02:48:11.464Z,26.01
2022-08-22T02:49:11.468Z,25.99
2022-08-22T02:50:12.211Z,26.01
2022-08-22T02:51:11.461Z,25.99
2022-08-22T02:52:11.433Z,25.99
2022-08-22T02:53:11.432Z,25.99
2022-08-22T02:54:11.406Z,26.01
2022-08-22T02:55:11.435Z,26.01
2022-08-22T02:56:11.383Z,25.99
2022-08-22T02:57:14.544Z,25.99
2022-08-22T02:58:11.383Z,26.01
2022-08-22T02:59:11.357Z,25.99
2022-08-22T03:00:31.150Z,25.99
2022-08-22T03:01:12.412Z,26.01
2022-08-22T03:02:11.362Z,25.98
2022-08-22T03:03:11.327Z,25.99
2022-08-22T03:04:11.306Z,26.01
2022-08-22T03:05:11.326Z,25.98
2022-08-22T03:06:11.279Z,25.98
2022-08-22T03:07:11.273Z,25.99
2022-08-22T03:08:11.264Z,25.99
2022-08-22T03:09:11.256Z,25.98
2022-08-22T03:10:11.235Z,25.99
2022-08-22T03:11:11.251Z,25.98
2022-08-22T03:12:11.215Z,25.98
2022-08-22T03:13:11.207Z,25.98
2022-08-22T03:14:11.199Z,25.99
2022-08-22T03:15:11.187Z,25.98
2022-08-22T03:16:11.187Z,25.99
2022-08-22T03:17:11.198Z,25.99
2022-08-22T03:18:11.158Z,25.98
2022-08-22T03:19:13.192Z,25.98
2022-08-22T03:20:12.138Z,25.97
2022-08-22T03:21:11.168Z,25.98
2022-08-22T03:22:11.118Z,25.97
2022-08-22T03:23:11.116Z,25.97
2022-08-22T03:24:11.086Z,25.97
2022-08-22T03:25:11.080Z,25.97
2022-08-22T03:26:11.076Z,25.97
2022-08-22T03:27:11.087Z,25.97
2022-08-22T03:28:11.117Z,25.98
2022-08-22T03:29:11.056Z,25.98
2022-08-22T03:30:11.034Z,25.97
2022-08-22T03:31:11.032Z,25.97
2022-08-22T03:32:11.079Z,25.95
2022-08-22T03:33:11.009Z,25.95
2022-08-22T03:34:11.000Z,25.97
2022-08-22T03:35:11.040Z,25.95
2022-08-22T03:36:10.971Z,25.95
2022-08-22T03:37:10.979Z,25.97
2022-08-22T03:38:10.968Z,25.97
2022-08-22T03:39:14.128Z,25.95
2022-08-22T03:40:11.985Z,25.95
2022-08-22T03:41:10.908Z,25.97
2022-08-22T03:42:10.918Z,25.95
2022-08-22T03:43:10.910Z,25.95
2022-08-22T03:44:10.903Z,25.94
2022-08-22T03:45:10.889Z,25.95
2022-08-22T03:46:10.860Z,25.94
2022-08-22T03:47:10.859Z,25.95
2022-08-22T03:48:10.860Z,25.95
2022-08-22T03:49:10.829Z,25.94
2022-08-22T03:50:10.858Z,25.94
2022-08-22T03:51:10.819Z,25.94
2022-08-22T03:52:10.808Z,25.94
2022-08-22T03:53:18.654Z,25.94
2022-08-22T03:54:11.808Z,25.94
2022-08-22T03:55:10.892Z,25.92
2022-08-22T03:56:10.801Z,25.94
2022-08-22T03:57:10.764Z,25.94
2022-08-22T03:58:23.900Z,25.92
2022-08-22T03:59:11.781Z,25.92
2022-08-22T04:00:10.730Z,25.94
2022-08-22T04:01:10.768Z,25.94
2022-08-22T04:02:37.473Z,25.94
2022-08-22T04:03:11.690Z,25.92
2022-08-22T04:04:10.701Z,25.92
2022-08-22T04:05:10.670Z,25.94
2022-08-22T04:06:12.724Z,25.92
2022-08-22T04:07:17.770Z,25.92
2022-08-22T04:08:11.681Z,25.92
2022-08-22T04:09:10.621Z,25.94
2022-08-22T04:10:10.630Z,25.91
2022-08-22T04:11:10.616Z,25.92
2022-08-22T04:12:10.603Z,25.91
2022-08-22T04:13:10.593Z,25.92
2022-08-22T04:14:10.584Z,25.92
2022-08-22T04:15:10.543Z,25.92
2022-08-22T04:16:10.515Z,25.92
2022-08-22T04:17:10.555Z,25.91
2022-08-22T04:18:10.523Z,25.91
2022-08-22T04:19:10.482Z,25.91
2022-08-22T04:20:10.462Z,25.91
2022-08-22T04:21:10.503Z,25.90
2022-08-22T04:22:10.442Z,25.92
2022-08-22T04:23:10.522Z,25.92
2022-08-22T04:24:10.423Z,25.91
2022-08-22T04:25:10.413Z,25.90
2022-08-22T04:26:12.402Z,25.91
2022-08-22T04:27:10.606Z,25.90
2022-08-22T04:28:10.384Z,25.91
2022-08-22T04:29:10.365Z,25.92
2022-08-22T04:30:10.364Z,25.90
2022-08-22T04:31:10.353Z,25.91
2022-08-22T04:32:14.422Z,25.92
2022-08-22T04:33:10.364Z,25.90
2022-08-22T04:34:10.343Z,25.91
2022-08-22T04:35:10.305Z,25.90
2022-08-22T04:36:10.286Z,25.91
2022-08-22T04:37:10.294Z,25.91
2022-08-22T04:38:10.934Z,25.91
2022-08-22T04:39:10.264Z,25.91
2022-08-22T04:40:10.285Z,25.91
2022-08-22T04:41:10.253Z,25.90
2022-08-22T04:42:31.243Z,25.91
2022-08-22T04:43:11.225Z,25.90
2022-08-22T04:44:10.220Z,25.91
2022-08-22T04:45:10.246Z,25.90
2022-08-22T04:46:10.186Z,25.90
2022-08-22T04:47:10.186Z,25.90
2022-08-22T04:48:10.165Z,25.91
2022-08-22T04:49:10.155Z,25.90
2022-08-22T04:50:10.145Z,25.91
2022-08-22T04:51:10.145Z,25.91
2022-08-22T04:52:10.177Z,25.91
2022-08-22T04:53:10.118Z,25.90
2022-08-22T04:54:10.120Z,25.91
2022-08-22T04:55:10.108Z,25.88
2022-08-22T04:56:10.096Z,25.92
2022-08-22T04:57:10.077Z,25.91
2022-08-22T04:58:10.087Z,25.92
2022-08-22T04:59:10.046Z,25.91
2022-08-22T05:00:10.055Z,25.91
2022-08-22T05:01:10.055Z,25.90
2022-08-22T05:02:10.093Z,25.91
2022-08-22T05:03:10.016Z,25.92
2022-08-22T05:04:10.026Z,25.92
2022-08-22T05:05:13.427Z,25.91
2022-08-22T05:06:10.627Z,25.90
2022-08-22T05:07:09.976Z,25.92
2022-08-22T05:08:09.968Z,25.91
2022-08-22T05:09:14.166Z,25.91
2022-08-22T05:10:12.221Z,25.92
2022-08-22T05:11:09.938Z,25.92
2022-08-22T05:12:09.918Z,25.91
2022-08-22T05:13:09.919Z,25.91
2022-08-22T05:14:09.911Z,25.92
2022-08-22T05:16:06.645Z,25.94
2022-08-22T05:17:06.607Z,25.92
2022-08-22T05:18:06.583Z,25.92
2022-08-22T05:19:06.573Z,25.94
2022-08-22T05:20:06.575Z,25.92
2022-08-22T05:21:07.556Z,25.92
2022-08-22T05:22:06.563Z,25.92
2022-08-22T05:23:06.545Z,25.92
2022-08-22T05:24:07.534Z,25.92
2022-08-22T05:25:06.514Z,25.92
2022-08-22T05:26:06.528Z,25.92
2022-08-22T05:27:06.547Z,25.92
2022-08-22T05:28:06.487Z,25.94
2022-08-22T05:29:06.486Z,25.94
2022-08-22T05:30:06.467Z,25.94
2022-08-22T05:31:06.546Z,25.94
2022-08-22T05:32:06.456Z,25.94
2022-08-22T05:33:06.466Z,25.92
2022-08-22T05:34:06.445Z,25.88
2022-08-22T05:35:06.438Z,25.83
2022-08-22T05:36:06.408Z,25.76
2022-08-22T05:37:08.210Z,25.65
2022-08-22T05:38:06.453Z,25.52
2022-08-22T05:39:06.396Z,25.38
2022-08-22T05:40:06.439Z,25.23
2022-08-22T05:41:06.369Z,25.08
2022-08-22T05:42:06.367Z,24.91
2022-08-22T05:43:06.326Z,24.80
2022-08-22T05:44:06.374Z,24.64
2022-08-22T05:45:06.317Z,24.50
2022-08-22T05:46:07.307Z,24.37
2022-08-22T05:47:06.296Z,24.24
2022-08-22T05:48:06.286Z,24.12
2022-08-22T05:49:06.327Z,24.02
2022-08-22T05:50:06.277Z,23.94
2022-08-22T05:51:06.249Z,23.80
2022-08-22T05:52:07.206Z,23.70
2022-08-22T05:53:06.257Z,23.60
2022-08-22T05:54:06.249Z,23.54
2022-08-22T05:55:06.240Z,23.47
2022-08-22T05:56:06.255Z,23.39
2022-08-22T05:57:08.020Z,23.35
2022-08-22T05:58:06.187Z,23.28
2022-08-22T05:59:08.183Z,23.25
2022-08-22T06:00:06.169Z,23.22
2022-08-22T06:01:06.159Z,23.17
2022-08-22T06:02:06.201Z,23.16
2022-08-22T06:03:06.128Z,23.12
2022-08-22T06:04:06.118Z,23.05
2022-08-22T06:05:10.008Z,23.02
2022-08-22T06:06:07.149Z,23.00
2022-08-22T06:07:06.102Z,22.98
2022-08-22T06:08:06.082Z,22.95
2022-08-22T06:09:06.088Z,22.92
2022-08-22T06:10:06.054Z,22.90
2022-08-22T06:11:06.070Z,22.86
2022-08-22T06:12:06.090Z,22.85
2022-08-22T06:13:06.041Z,22.85
2022-08-22T06:14:07.028Z,22.83
2022-08-22T06:15:12.181Z,22.82
2022-08-22T06:16:07.008Z,22.80
2022-08-22T06:17:06.009Z,22.79
2022-08-22T06:18:06.936Z,22.79
2022-08-22T06:19:19.288Z,22.76
2022-08-22T06:20:06.972Z,22.75
2022-08-22T06:21:05.951Z,22.70
2022-08-22T06:22:05.975Z,22.70
2022-08-22T06:23:05.913Z,22.67
2022-08-22T06:24:05.966Z,22.68
2022-08-22T06:25:05.903Z,22.70
2022-08-22T06:26:05.953Z,22.70
2022-08-22T06:27:06.901Z,22.70
2022-08-22T06:28:05.892Z,22.68
2022-08-22T06:29:05.882Z,22.68
2022-08-22T06:30:05.869Z,22.72
2022-08-22T06:31:05.860Z,22.70
2022-08-22T06:32:05.840Z,22.72
2022-08-22T06:33:05.821Z,22.72
2022-08-22T06:34:05.818Z,22.72
2022-08-22T06:35:07.520Z,22.73
2022-08-22T06:36:05.826Z,22.72
2022-08-22T06:37:05.773Z,22.72
2022-08-22T06:38:05.793Z,22.70
2022-08-22T06:39:05.772Z,22.72
2022-08-22T06:40:05.777Z,22.73
2022-08-22T06:41:05.745Z,22.73
2022-08-22T06:42:05.751Z,22.73
2022-08-22T06:43:05.737Z,22.75
2022-08-22T06:44:05.721Z,22.75
2022-08-22T06:45:05.701Z,22.77
2022-08-22T06:46:05.703Z,22.77
2022-08-22T06:47:05.675Z,22.79
2022-08-22T06:48:06.085Z,22.79
2022-08-22T06:49:05.663Z,22.76
2022-08-22T06:50:05.662Z,22.77
2022-08-22T06:51:05.682Z,22.76
2022-08-22T06:52:05.645Z,22.76
2022-08-22T06:53:05.635Z,22.77
2022-08-22T06:54:05.613Z,22.76
2022-08-22T06:55:05.607Z,22.76
2022-08-22T06:56:05.663Z,22.73
2022-08-22T06:57:05.605Z,22.75
2022-08-22T06:58:05.583Z,22.73
2022-08-22T06:59:05.632Z,22.75
2022-08-22T07:00:05.561Z,22.73
2022-08-22T07:01:11.350Z,22.76
2022-08-22T07:02:06.607Z,22.76
2022-08-22T07:03:05.517Z,22.77
2022-08-22T07:04:05.533Z,22.76
2022-08-22T07:05:05.513Z,22.77
2022-08-22T07:06:05.525Z,22.79
2022-08-22T07:07:05.496Z,22.80
2022-08-22T07:08:05.465Z,22.82
2022-08-22T07:09:06.909Z,22.82
2022-08-22T07:10:05.454Z,22.86
2022-08-22T07:11:05.438Z,22.88
2022-08-22T07:12:05.437Z,22.91
2022-08-22T07:13:05.474Z,22.92
2022-08-22T07:14:05.403Z,22.95
2022-08-22T07:15:05.385Z,22.98
2022-08-22T07:16:05.684Z,23.00
2022-08-22T07:17:05.375Z,23.01
2022-08-22T07:18:05.384Z,23.02
2022-08-22T07:19:05.437Z,23.05
2022-08-22T07:20:05.348Z,23.04
2022-08-22T07:21:05.361Z,23.07
2022-08-22T07:22:05.347Z,23.09
2022-08-22T07:23:05.304Z,23.09
2022-08-22T07:24:05.328Z,23.09
2022-08-22T07:25:05.338Z,23.12
2022-08-22T07:26:05.705Z,23.12
2022-08-22T07:27:05.265Z,23.15
2022-08-22T07:28:05.336Z,23.16
2022-08-22T07:29:10.747Z,23.16
2022-08-22T07:30:06.240Z,23.16
2022-08-22T07:31:05.224Z,23.17
2022-08-22T07:32:05.260Z,23.19
2022-08-22T07:33:26.023Z,23.17
2022-08-22T07:34:06.208Z,23.20
2022-08-22T07:35:05.206Z,23.20
2022-08-22T07:36:05.178Z,23.22
2022-08-22T07:37:05.178Z,23.22
2022-08-22T07:38:05.158Z,23.22
2022-08-22T07:39:05.174Z,23.25
2022-08-22T07:40:06.177Z,23.27
2022-08-22T07:41:05.117Z,23.25
2022-08-22T07:42:05.148Z,23.28
2022-08-22T07:43:05.128Z,23.28
2022-08-22T07:44:05.165Z,23.32
2022-08-22T07:45:05.089Z,23.32
2022-08-22T07:46:05.070Z,23.33
2022-08-22T07:47:05.069Z,23.32
2022-08-22T07:48:05.082Z,23.33
2022-08-22T07:49:09.848Z,23.35
2022-08-22T07:50:06.034Z,23.35
2022-08-22T07:51:05.036Z,23.36
2022-08-22T07:52:05.010Z,23.36
2022-08-22T07:53:05.017Z,23.40
2022-08-22T07:54:04.989Z,23.40
2022-08-22T07:55:04.987Z,23.40
2022-08-22T07:56:04.976Z,23.43
2022-08-22T07:57:04.947Z,23.46
2022-08-22T07:58:04.949Z,23.43
2022-08-22T07:59:09.741Z,23.48
2022-08-22T08:00:06.001Z,23.50
2022-08-22T08:01:04.971Z,23.50
2022-08-22T08:02:04.938Z,23.51
2022-08-22T08:03:04.912Z,23.54
2022-08-22T08:04:04.895Z,23.54
2022-08-22T08:05:04.898Z,23.57
2022-08-22T08:06:04.851Z,23.58
2022-08-22T08:07:04.874Z,23.60
2022-08-22T08:08:04.851Z,23.61
2022-08-22T08:09:04.848Z,23.63
2022-08-22T08:10:04.840Z,23.65
2022-08-22T08:11:04.868Z,23.68
2022-08-22T08:12:04.788Z,23.69
2022-08-22T08:13:05.442Z,23.68
2022-08-22T08:14:04.866Z,23.70
2022-08-22T08:15:04.838Z,23.72
2022-08-22T08:16:04.751Z,23.72
2022-08-22T08:17:04.751Z,23.72
2022-08-22T08:18:04.860Z,23.72
2022-08-22T08:19:04.733Z,23.78
2022-08-22T08:20:04.721Z,23.76
2022-08-22T08:21:04.747Z,23.79
2022-08-22T08:22:04.680Z,23.80
2022-08-22T08:23:04.679Z,23.84
2022-08-22T08:24:04.698Z,23.85
2022-08-22T08:25:04.658Z,23.88
2022-08-22T08:26:04.679Z,23.90
2022-08-22T08:27:04.659Z,23.91
2022-08-22T08:28:04.695Z,23.93
2022-08-22T08:29:04.679Z,23.94
2022-08-22T08:30:04.611Z,23.95
2022-08-22T08:31:04.601Z,23.95
2022-08-22T08:32:04.614Z,23.95
2022-08-22T08:33:24.388Z,23.95
2022-08-22T08:34:05.569Z,23.98
2022-08-22T08:35:04.612Z,24.00
2022-08-22T08:36:04.569Z,24.02
2022-08-22T08:37:04.565Z,24.02
2022-08-22T08:38:04.550Z,24.03
2022-08-22T08:39:04.511Z,24.05
2022-08-22T08:40:04.538Z,24.05
2022-08-22T08:41:04.491Z,24.05
2022-08-22T08:42:04.532Z,24.06
2022-08-22T08:43:04.483Z,24.06
2022-08-22T08:44:04.464Z,24.06
2022-08-22T08:45:04.460Z,24.05
2022-08-22T08:46:04.465Z,24.06
2022-08-22T08:47:04.433Z,24.06
2022-08-22T08:48:04.461Z,24.08
2022-08-22T08:49:06.411Z,24.06
2022-08-22T08:50:04.423Z,24.08
2022-08-22T08:51:04.413Z,24.06
2022-08-22T08:52:04.424Z,24.09
2022-08-22T08:53:04.408Z,24.09
2022-08-22T08:54:04.394Z,24.09
2022-08-22T08:55:15.938Z,24.12
2022-08-22T08:56:05.341Z,24.13
2022-08-22T08:57:04.399Z,24.12
2022-08-22T08:58:06.720Z,24.13
2022-08-22T08:59:04.310Z,24.13
2022-08-22T09:00:05.310Z,24.13
2022-08-22T09:01:04.373Z,24.12
2022-08-22T09:02:04.292Z,24.15
2022-08-22T09:03:06.996Z,24.13
2022-08-22T09:04:04.291Z,24.15
2022-08-22T09:05:04.295Z,24.16
2022-08-22T09:06:04.242Z,24.16
2022-08-22T09:07:04.311Z,24.18
2022-08-22T09:08:04.211Z,24.20
2022-08-22T09:09:04.201Z,24.20
2022-08-22T09:10:04.246Z,24.21
2022-08-22T09:11:04.210Z,24.21
2022-08-22T09:12:05.214Z,24.22
2022-08-22T09:13:11.455Z,24.22
2022-08-22T09:14:05.155Z,24.21
2022-08-22T09:15:04.156Z,24.22
2022-08-22T09:16:06.137Z,24.24
2022-08-22T09:17:04.162Z,24.22
2022-08-22T09:18:04.103Z,24.24
2022-08-22T09:19:04.125Z,24.24
2022-08-22T09:20:18.019Z,24.24
2022-08-22T09:21:05.109Z,24.24
2022-08-22T09:22:04.094Z,24.25
2022-08-22T09:23:04.120Z,24.25
2022-08-22T09:24:05.048Z,24.27
2022-08-22T09:25:06.018Z,24.27
2022-08-22T09:26:05.016Z,24.28
2022-08-22T09:27:04.062Z,24.30
2022-08-22T09:28:04.036Z,24.30
2022-08-22T09:29:04.018Z,24.32
2022-08-22T09:30:04.664Z,24.35
2022-08-22T09:31:22.348Z,24.37
2022-08-22T09:32:04.965Z,24.40
2022-08-22T09:33:03.966Z,24.42
2022-08-22T09:34:05.229Z,24.43
2022-08-22T09:35:03.960Z,24.45
2022-08-22T09:36:05.258Z,24.47
2022-08-22T09:37:03.934Z,24.49
2022-08-22T09:38:03.984Z,24.49
2022-08-22T09:39:03.924Z,24.49
2022-08-22T09:40:03.988Z,24.50
2022-08-22T09:41:03.926Z,24.52
2022-08-22T09:42:03.874Z,24.50
2022-08-22T09:43:03.867Z,24.52
2022-08-22T09:44:03.871Z,24.53
2022-08-22T09:45:04.823Z,24.55
2022-08-22T09:46:03.860Z,24.55
2022-08-22T09:47:03.816Z,24.58
2022-08-22T09:48:07.192Z,24.60
2022-08-22T09:49:05.628Z,24.60
2022-08-22T09:50:03.778Z,24.62
2022-08-22T09:51:26.685Z,24.64
2022-08-22T09:52:15.633Z,24.65
2022-08-22T09:53:04.756Z,24.67
2022-08-22T09:54:04.204Z,24.68
2022-08-22T09:55:08.102Z,24.71
2022-08-22T09:56:11.548Z,24.69
2022-08-22T09:57:04.708Z,24.73
2022-08-22T09:58:03.867Z,24.76
2022-08-22T09:59:03.710Z,24.76
2022-08-22T10:00:03.676Z,24.76
2022-08-22T10:01:03.733Z,24.77
2022-08-22T10:02:05.933Z,24.78
2022-08-22T10:03:03.665Z,24.77
2022-08-22T10:04:03.657Z,24.78
2022-08-22T10:05:04.066Z,24.77
2022-08-22T10:06:03.641Z,24.80
2022-08-22T10:07:04.948Z,24.77
2022-08-22T10:08:05.263Z,24.77
2022-08-22T10:09:03.611Z,24.78
2022-08-22T10:10:03.608Z,24.78
2022-08-22T10:11:03.578Z,24.80
2022-08-22T10:12:03.570Z,24.80
2022-08-22T10:13:03.623Z,24.78
2022-08-22T10:14:03.572Z,24.78
2022-08-22T10:15:03.547Z,24.78
2022-08-22T10:17:00.516Z,24.80
2022-08-22T10:18:00.502Z,24.78
2022-08-22T10:19:00.871Z,24.80
2022-08-22T10:20:00.451Z,24.81
2022-08-22T10:21:00.460Z,24.81
2022-08-22T10:22:00.444Z,24.81
2022-08-22T10:23:00.646Z,24.84
2022-08-22T10:24:00.412Z,24.84
2022-08-22T10:25:00.454Z,24.84
2022-08-22T10:26:00.430Z,24.85
2022-08-22T10:27:00.382Z,24.84
2022-08-22T10:28:00.384Z,24.88
2022-08-22T10:29:00.374Z,24.90
2022-08-22T10:30:00.395Z,24.90
2022-08-22T10:31:01.354Z,24.93
2022-08-22T10:32:01.366Z,24.93
2022-08-22T10:33:01.609Z,24.93
2022-08-22T10:34:00.357Z,24.95
2022-08-22T10:35:00.344Z,24.96
2022-08-22T10:36:00.323Z,24.95
2022-08-22T10:37:00.303Z,24.96
2022-08-22T10:38:00.283Z,24.99
2022-08-22T10:39:00.264Z,24.98
2022-08-22T10:40:00.370Z,24.98
2022-08-22T10:41:00.263Z,24.99
2022-08-22T10:42:00.296Z,24.98
2022-08-22T10:43:00.336Z,24.99
2022-08-22T10:44:01.221Z,24.98
2022-08-22T10:45:00.213Z,24.96
2022-08-22T10:46:00.206Z,24.99
2022-08-22T10:47:00.218Z,24.98
2022-08-22T10:48:00.201Z,24.99
2022-08-22T10:49:00.236Z,24.98
2022-08-22T10:50:01.891Z,24.99
2022-08-22T10:51:01.147Z,24.99
2022-08-22T10:52:09.715Z,24.99
2022-08-22T10:53:01.299Z,24.99
2022-08-22T10:54:00.127Z,24.98
2022-08-22T10:55:00.109Z,24.99
2022-08-22T10:56:04.804Z,25.00
2022-08-22T10:57:00.107Z,25.00
2022-08-22T10:58:00.077Z,25.02
2022-08-22T10:59:00.559Z,25.02
2022-08-22T11:00:00.087Z,25.02
2022-08-22T11:01:00.172Z,25.02
2022-08-22T11:02:00.144Z,25.03
2022-08-22T11:03:00.242Z,25.03
2022-08-22T11:04:00.030Z,25.05
2022-08-22T11:05:00.007Z,25.03
2022-08-22T11:06:00.012Z,25.03
2022-08-22T11:07:00.053Z,25.06
2022-08-22T11:07:59.996Z,25.06
2022-08-22T11:08:59.960Z,25.06
2022-08-22T11:09:59.991Z,25.08
2022-08-22T11:10:59.939Z,25.08
2022-08-22T11:11:59.950Z,25.05
2022-08-22T11:13:00.122Z,25.08
2022-08-22T11:13:59.934Z,25.06
2022-08-22T11:14:59.909Z,25.08
2022-08-22T11:15:59.905Z,25.06
2022-08-22T11:16:59.878Z,25.06
2022-08-22T11:17:59.882Z,25.06
2022-08-22T11:19:02.968Z,25.06
2022-08-22T11:20:00.878Z,25.08
2022-08-22T11:20:59.847Z,25.06
2022-08-22T11:21:59.839Z,25.08
2022-08-22T11:22:59.994Z,25.06
2022-08-22T11:24:00.503Z,25.08
2022-08-22T11:25:04.013Z,25.08
2022-08-22T11:25:59.801Z,25.08
2022-08-22T11:27:00.791Z,25.06
2022-08-22T11:27:59.803Z,25.08
2022-08-22T11:29:12.346Z,25.09
2022-08-22T11:30:01.382Z,25.06
2022-08-22T11:30:59.750Z,25.08
2022-08-22T11:32:01.446Z,25.09
2022-08-22T11:33:01.155Z,25.09
2022-08-22T11:33:59.729Z,25.09
2022-08-22T11:34:59.739Z,25.10
2022-08-22T11:35:59.722Z,25.09
2022-08-22T11:37:00.760Z,25.09
2022-08-22T11:37:59.743Z,25.10
2022-08-22T11:38:59.691Z,25.13
2022-08-22T11:39:59.707Z,25.10
2022-08-22T11:40:59.664Z,25.13
2022-08-22T11:41:59.641Z,25.09
2022-08-22T11:43:00.122Z,25.13
2022-08-22T11:43:59.603Z,25.10
2022-08-22T11:44:59.634Z,25.14
2022-08-22T11:45:59.623Z,25.13
2022-08-22T11:46:59.626Z,25.14
2022-08-22T11:47:59.602Z,25.13
2022-08-22T11:48:59.595Z,25.13
2022-08-22T11:49:59.571Z,25.10
2022-08-22T11:50:59.541Z,25.13
2022-08-22T11:51:59.573Z,25.13
2022-08-22T11:52:59.628Z,25.13
2022-08-22T11:53:59.518Z,25.14
2022-08-22T11:54:59.539Z,25.14
2022-08-22T11:55:59.533Z,25.15
2022-08-22T11:56:59.534Z,25.14
2022-08-22T11:57:59.506Z,25.17
2022-08-22T11:58:59.565Z,25.17
2022-08-22T11:59:59.453Z,25.15
2022-08-22T12:00:59.457Z,25.18
2022-08-22T12:01:59.551Z,25.18
2022-08-22T12:02:59.609Z,25.18
2022-08-22T12:03:59.467Z,25.20
2022-08-22T12:04:59.451Z,25.20
2022-08-22T12:05:59.457Z,25.21
2022-08-22T12:06:59.424Z,25.23
2022-08-22T12:07:59.428Z,25.21
2022-08-22T12:08:59.378Z,25.23
2022-08-22T12:09:59.440Z,25.24
2022-08-22T12:10:59.355Z,25.25
2022-08-22T12:11:59.333Z,25.27
2022-08-22T12:13:00.736Z,25.27
2022-08-22T12:14:03.918Z,25.27
2022-08-22T12:15:00.328Z,25.28
2022-08-22T12:15:59.313Z,25.30
2022-08-22T12:16:59.283Z,25.28
2022-08-22T12:18:01.532Z,25.32
2022-08-22T12:18:59.257Z,25.32
2022-08-22T12:20:16.574Z,25.35
2022-08-22T12:21:00.325Z,25.35
2022-08-22T12:21:59.266Z,25.36
2022-08-22T12:22:59.323Z,25.38
2022-08-22T12:23:59.236Z,25.38
2022-08-22T12:25:02.956Z,25.40
2022-08-22T12:25:59.186Z,25.42
2022-08-22T12:26:59.194Z,25.42
2022-08-22T12:27:59.173Z,25.43
2022-08-22T12:28:59.165Z,25.46
2022-08-22T12:29:59.144Z,25.46
2022-08-22T12:30:59.135Z,25.47
2022-08-22T12:31:59.163Z,25.47
2022-08-22T12:32:59.224Z,25.51
2022-08-22T12:33:59.123Z,25.51
2022-08-22T12:34:59.107Z,25.51
2022-08-22T12:35:59.086Z,25.52
2022-08-22T12:36:59.117Z,25.54
2022-08-22T12:37:59.101Z,25.55
2022-08-22T12:38:59.086Z,25.55
2022-08-22T12:39:59.147Z,25.58
2022-08-22T12:40:59.046Z,25.57
2022-08-22T12:41:59.035Z,25.60
2022-08-22T12:42:59.016Z,25.62
2022-08-22T12:43:59.016Z,25.61
2022-08-22T12:44:58.986Z,25.61
2022-08-22T12:45:59.035Z,25.62
2022-08-22T12:46:58.986Z,25.65
2022-08-22T12:47:59.148Z,25.67
2022-08-22T12:48:58.956Z,25.67